createdAt,value
2018-10-15T09:33:57.412Z,936.08
2018-10-15T09:34:58.809Z,936.08
2018-10-15T09:35:59.975Z,936.03
2018-10-15T09:37:00.352Z,936.05
2018-10-15T09:38:01.068Z,936.07
2018-10-15T09:39:02.327Z,936.06
2018-10-15T09:40:02.998Z,936.09
2018-10-15T09:41:03.542Z,936.11
2018-10-15T09:42:04.045Z,936.09
2018-10-15T09:43:05.470Z,936.09
2018-10-15T09:44:06.538Z,936.05
2018-10-15T09:45:07.320Z,936.08
2018-10-15T09:46:08.476Z,936.08
2018-10-15T09:47:09.929Z,936.02
2018-10-15T09:48:10.670Z,936.05
2018-10-15T09:49:11.791Z,936.02
2018-10-15T09:50:12.930Z,936.04
2018-10-15T09:51:14.072Z,936.01
2018-10-15T09:52:15.269Z,936.05
2018-10-15T09:53:16.000Z,936.03
2018-10-15T09:54:17.009Z,936.07
2018-10-15T09:55:17.589Z,936.05
2018-10-15T09:56:18.639Z,936.07
2018-10-15T09:57:19.642Z,936.02
2018-10-15T09:58:20.606Z,936.06
2018-10-15T09:59:21.906Z,936.09
2018-10-15T10:00:22.604Z,936.15
2018-10-15T10:01:23.676Z,936.15
2018-10-15T10:02:24.741Z,936.17
2018-10-15T10:03:25.940Z,936.15
2018-10-15T10:04:27.075Z,936.17
2018-10-15T10:05:28.373Z,936.17
2018-10-15T10:06:29.144Z,936.19
2018-10-15T10:07:29.891Z,936.15
2018-10-15T10:08:31.377Z,936.08
2018-10-15T10:09:32.181Z,936.11
2018-10-15T10:10:33.540Z,936.16
2018-10-15T10:11:34.069Z,936.18
2018-10-15T10:12:34.420Z,936.2
2018-10-15T10:13:34.945Z,936.18
2018-10-15T10:14:35.522Z,936.15
2018-10-15T10:15:36.797Z,936.11
2018-10-15T10:16:37.473Z,936.13
2018-10-15T10:17:38.476Z,936.17
2018-10-15T10:18:38.706Z,936.16
2018-10-15T10:19:39.217Z,936.16
2018-10-15T10:20:40.901Z,936.17
2018-10-15T10:21:42.241Z,936.15
2018-10-15T10:22:42.702Z,936.16
2018-10-15T10:23:43.788Z,936.17
2018-10-15T10:24:45.062Z,936.18
2018-10-15T10:25:45.739Z,936.17
2018-10-15T10:26:47.125Z,936.15
2018-10-15T10:27:47.660Z,936.19
2018-10-15T10:28:49.104Z,936.16
2018-10-15T10:29:50.712Z,936.17
2018-10-15T10:30:52.005Z,936.17
2018-10-15T10:31:52.403Z,936.19
2018-10-15T10:32:53.587Z,936.18
2018-10-15T10:33:54.946Z,936.16
2018-10-15T10:34:55.651Z,936.13
2018-10-15T10:35:56.655Z,936.16
2018-10-15T10:36:57.900Z,936.11
2018-10-15T10:37:58.584Z,936.1
2018-10-15T10:38:59.454Z,936.07
2018-10-15T10:40:00.070Z,936.05
2018-10-15T10:41:01.176Z,936.04
2018-10-15T10:42:01.465Z,936.02
2018-10-15T10:43:02.614Z,936.01
2018-10-15T10:44:03.255Z,936.04
2018-10-15T10:45:04.649Z,936.09
2018-10-15T10:46:05.741Z,936.07
2018-10-15T10:47:07.378Z,936.03
2018-10-15T10:48:08.239Z,936.03
2018-10-15T10:49:09.387Z,936.03
2018-10-15T10:50:09.924Z,936.08
2018-10-15T10:51:10.867Z,936.02
2018-10-15T10:52:11.469Z,936.01
2018-10-15T10:53:12.133Z,936.02
2018-10-15T10:54:12.495Z,935.99
2018-10-15T10:55:13.438Z,935.98
2018-10-15T10:56:14.403Z,936
2018-10-15T10:57:15.203Z,935.98
2018-10-15T10:58:15.726Z,935.97
2018-10-15T10:59:17.146Z,935.94
2018-10-15T11:00:17.646Z,935.91
2018-10-15T11:01:18.290Z,935.91
2018-10-15T11:02:19.075Z,935.9
2018-10-15T11:03:19.461Z,935.85
2018-10-15T11:04:20.707Z,935.83
2018-10-15T11:05:22.069Z,935.82
2018-10-15T11:06:22.872Z,935.83
2018-10-15T11:07:23.420Z,935.76
2018-10-15T11:08:24.705Z,935.83
2018-10-15T11:09:25.813Z,935.79
2018-10-15T11:10:27.054Z,935.8
2018-10-15T11:11:27.588Z,935.81
2018-10-15T11:12:28.111Z,935.8
2018-10-15T11:13:28.803Z,935.79
2018-10-15T11:14:29.600Z,935.79
2018-10-15T11:15:30.126Z,935.83
2018-10-15T11:16:30.919Z,935.8
2018-10-15T11:17:31.621Z,935.8
2018-10-15T11:18:33.055Z,935.85
2018-10-15T11:19:34.265Z,935.81
2018-10-15T11:20:35.182Z,935.81
2018-10-15T11:21:36.432Z,935.81
2018-10-15T11:22:38.645Z,935.79
2018-10-15T11:22:49.181Z,935.77
2018-10-15T11:23:49.839Z,935.76
2018-10-15T11:24:50.367Z,935.78
2018-10-15T11:25:51.172Z,935.7
2018-10-15T11:26:52.119Z,935.67
2018-10-15T11:27:53.195Z,935.71
2018-10-15T11:28:53.888Z,935.72
2018-10-15T11:29:54.691Z,935.68
2018-10-15T11:30:56.670Z,935.63
2018-10-15T11:31:07.703Z,935.65
2018-10-15T11:32:09.236Z,935.63
2018-10-15T11:33:09.723Z,935.61
2018-10-15T11:34:11.422Z,935.55
2018-10-15T11:35:12.131Z,935.61
2018-10-15T11:36:13.376Z,935.6
2018-10-15T11:37:14.457Z,935.63
2018-10-15T11:38:15.820Z,935.6
2018-10-15T11:39:18.165Z,935.58
2018-10-15T11:40:19.226Z,935.57
2018-10-15T11:41:20.034Z,935.54
2018-10-15T11:42:21.287Z,935.57
2018-10-15T11:43:22.155Z,935.53
2018-10-15T11:44:23.321Z,935.51
2018-10-15T11:45:25.024Z,935.56
2018-10-15T11:46:26.195Z,935.52
2018-10-15T11:47:26.950Z,935.54
2018-10-15T11:48:27.663Z,935.55
2018-10-15T11:49:28.595Z,935.55
2018-10-15T11:50:30.126Z,935.55
2018-10-15T11:51:30.676Z,935.59
2018-10-15T11:52:31.670Z,935.55
2018-10-15T11:53:32.049Z,935.55
2018-10-15T11:54:32.616Z,935.53
2018-10-15T11:55:33.698Z,935.5
2018-10-15T11:56:34.223Z,935.51
2018-10-15T11:57:35.468Z,935.51
2018-10-15T11:58:36.293Z,935.51
2018-10-15T11:59:37.082Z,935.48
2018-10-15T12:00:38.995Z,935.53
2018-10-15T12:01:41.087Z,935.54
2018-10-15T12:01:52.744Z,935.51
2018-10-15T12:02:04.371Z,935.53
2018-10-15T12:02:17.261Z,935.51
2018-10-15T12:02:29.510Z,935.5
2018-10-15T12:02:41.577Z,935.49
2018-10-15T12:02:53.618Z,935.5
2018-10-15T12:03:05.164Z,935.49
2018-10-15T12:03:17.365Z,935.5
2018-10-15T12:03:29.479Z,935.5
2018-10-15T12:03:41.029Z,935.49
2018-10-15T12:04:46.055Z,935.52
2018-10-15T12:05:46.899Z,935.47
2018-10-15T12:06:47.415Z,935.45
2018-10-15T12:07:47.784Z,935.46
2018-10-15T12:08:48.588Z,935.43
2018-10-15T12:09:49.832Z,935.44
2018-10-15T12:10:51.122Z,935.43
2018-10-15T12:11:51.898Z,935.38
2018-10-15T12:12:53.256Z,935.44
2018-10-15T12:13:54.090Z,935.36
2018-10-15T12:14:55.015Z,935.38
2018-10-15T12:15:55.733Z,935.38
2018-10-15T12:16:57.231Z,935.38
2018-10-15T12:17:57.867Z,935.4
2018-10-15T12:18:59.057Z,935.38
2018-10-15T12:19:59.861Z,935.4
2018-10-15T12:21:00.659Z,935.42
2018-10-15T12:22:01.186Z,935.42
2018-10-15T12:23:02.591Z,935.39
2018-10-15T12:24:02.944Z,935.36
2018-10-15T12:25:03.748Z,935.38
2018-10-15T12:26:04.307Z,935.41
2018-10-15T12:27:04.600Z,935.33
2018-10-15T12:28:05.401Z,935.38
2018-10-15T12:29:06.484Z,935.37
2018-10-15T12:30:07.287Z,935.4
2018-10-15T12:31:08.714Z,935.41
2018-10-15T12:32:09.750Z,935.42
2018-10-15T12:33:10.110Z,935.36
2018-10-15T12:34:10.919Z,935.38
2018-10-15T12:35:11.449Z,935.33
2018-10-15T12:36:12.993Z,935.33
2018-10-15T12:37:14.240Z,935.27
2018-10-15T12:38:14.764Z,935.28
2018-10-15T12:39:15.130Z,935.29
2018-10-15T12:40:15.925Z,935.31
2018-10-15T12:41:17.473Z,935.32
2018-10-15T12:42:17.702Z,935.29
2018-10-15T12:43:19.067Z,935.32
2018-10-15T12:44:19.898Z,935.32
2018-10-15T12:45:21.103Z,935.33
2018-10-15T12:46:22.365Z,935.25
2018-10-15T12:47:23.182Z,935.25
2018-10-15T12:48:23.733Z,935.28
2018-10-15T12:49:24.261Z,935.24
2018-10-15T12:50:24.796Z,935.23
2018-10-15T12:51:25.316Z,935.22
2018-10-15T12:52:26.563Z,935.28
2018-10-15T12:53:27.229Z,935.29
2018-10-15T12:54:27.459Z,935.25
2018-10-15T12:55:28.539Z,935.2
2018-10-15T12:56:29.524Z,935.22
2018-10-15T12:57:30.605Z,935.17
2018-10-15T12:58:31.130Z,935.21
2018-10-15T12:59:32.496Z,935.22
2018-10-15T13:00:33.024Z,935.25
2018-10-15T13:01:33.393Z,935.23
2018-10-15T13:02:33.797Z,935.25
2018-10-15T13:03:34.605Z,935.22
2018-10-15T13:04:35.413Z,935.24
2018-10-15T13:05:37.423Z,935.25
2018-10-15T13:06:37.478Z,935.18
2018-10-15T13:07:39.635Z,935.22
2018-10-15T13:07:50.095Z,935.2
2018-10-15T13:08:51.075Z,935.23
2018-10-15T13:09:51.442Z,935.25
2018-10-15T13:10:51.971Z,935.27
2018-10-15T13:11:52.785Z,935.24
2018-10-15T13:12:53.302Z,935.23
2018-10-15T13:13:54.848Z,935.24
2018-10-15T13:14:55.652Z,935.22
2018-10-15T13:15:56.904Z,935.22
2018-10-15T13:16:57.707Z,935.23
2018-10-15T13:17:58.514Z,935.18
2018-10-15T13:18:59.770Z,935.17
2018-10-15T13:20:00.299Z,935.18
2018-10-15T13:21:01.140Z,935.19
2018-10-15T13:22:01.637Z,935.14
2018-10-15T13:23:03.012Z,935.17
2018-10-15T13:24:03.816Z,935.19
2018-10-15T13:25:04.668Z,935.17
2018-10-15T13:26:05.195Z,935.15
2018-10-15T13:27:06.445Z,935.14
2018-10-15T13:28:07.249Z,935.15
2018-10-15T13:29:08.067Z,935.13
2018-10-15T13:30:09.324Z,935.15
2018-10-15T13:31:10.409Z,935.15
2018-10-15T13:32:10.939Z,935.14
2018-10-15T13:33:12.783Z,935.13
2018-10-15T13:34:13.140Z,935.07
2018-10-15T13:35:13.943Z,935.19
2018-10-15T13:36:14.468Z,935.18
2018-10-15T13:37:15.343Z,935.15
2018-10-15T13:38:16.393Z,935.14
2018-10-15T13:39:17.499Z,935.15
2018-10-15T13:40:18.300Z,935.15
2018-10-15T13:41:19.548Z,935.17
2018-10-15T13:42:20.362Z,935.09
2018-10-15T13:43:21.183Z,935.14
2018-10-15T13:44:21.987Z,935.16
2018-10-15T13:45:23.095Z,935.14
2018-10-15T13:46:23.910Z,935.13
2018-10-15T13:47:24.573Z,935.17
2018-10-15T13:48:25.098Z,935.12
2018-10-15T13:49:26.357Z,935.16
2018-10-15T13:50:26.883Z,935.16
2018-10-15T13:51:27.963Z,935.16
2018-10-15T13:52:28.552Z,935.11
2018-10-15T13:53:29.798Z,935.09
2018-10-15T13:54:30.879Z,935.12
2018-10-15T13:55:31.239Z,935.07
2018-10-15T13:56:31.935Z,935.12
2018-10-15T13:57:32.620Z,935.14
2018-10-15T13:58:33.423Z,935.09
2018-10-15T13:59:34.001Z,935.09
2018-10-15T14:00:34.805Z,935.05
2018-10-15T14:01:35.767Z,935.06
2018-10-15T14:02:37.133Z,935.08
2018-10-15T14:03:38.213Z,935.09
2018-10-15T14:04:39.292Z,935.08
2018-10-15T14:05:40.541Z,935.07
2018-10-15T14:06:41.624Z,935.16
2018-10-15T14:07:42.148Z,935.13
2018-10-15T14:08:42.791Z,935.12
2018-10-15T14:09:43.326Z,935.14
2018-10-15T14:10:44.157Z,935.13
2018-10-15T14:11:45.305Z,935.13
2018-10-15T14:12:46.371Z,935.15
2018-10-15T14:13:47.173Z,935.12
2018-10-15T14:14:47.975Z,935.14
2018-10-15T14:15:49.053Z,935.14
2018-10-15T14:16:49.580Z,935.12
2018-10-15T14:17:50.391Z,935.12
2018-10-15T14:18:51.152Z,935.13
2018-10-15T14:19:51.544Z,935.11
2018-10-15T14:20:52.343Z,935.11
2018-10-15T14:21:53.424Z,935.08
2018-10-15T14:22:54.225Z,935.08
2018-10-15T14:23:55.317Z,935.1
2018-10-15T14:24:56.145Z,935.08
2018-10-15T14:25:56.954Z,935.08
2018-10-15T14:26:57.763Z,935.09
2018-10-15T14:27:58.569Z,935.07
2018-10-15T14:28:59.376Z,935.08
2018-10-15T14:30:00.655Z,935.04
2018-10-15T14:31:01.945Z,935.06
2018-10-15T14:32:02.234Z,935.05
2018-10-15T14:33:03.042Z,935.07
2018-10-15T14:34:03.568Z,935.04
2018-10-15T14:35:04.369Z,935.02
2018-10-15T14:36:05.169Z,935.01
2018-10-15T14:37:06.258Z,935.02
2018-10-15T14:38:06.776Z,934.99
2018-10-15T14:39:09.197Z,935.01
2018-10-15T14:39:21.646Z,935.02
2018-10-15T14:40:21.574Z,935.02
2018-10-15T14:41:22.247Z,935
2018-10-15T14:42:22.777Z,935.05
2018-10-15T14:43:24.137Z,935.02
2018-10-15T14:44:25.225Z,935.06
2018-10-15T14:45:26.021Z,935.02
2018-10-15T14:46:27.110Z,934.98
2018-10-15T14:47:28.511Z,935
2018-10-15T14:48:29.485Z,934.96
2018-10-15T14:49:30.025Z,935
2018-10-15T14:50:30.858Z,934.98
2018-10-15T14:51:32.210Z,935.02
2018-10-15T14:52:33.450Z,934.98
2018-10-15T14:53:34.531Z,934.96
2018-10-15T14:54:34.887Z,934.98
2018-10-15T14:55:35.409Z,934.97
2018-10-15T14:56:36.258Z,935.01
2018-10-15T14:57:36.781Z,934.95
2018-10-15T14:58:37.300Z,934.93
2018-10-15T14:59:37.666Z,935
2018-10-15T15:00:38.921Z,934.97
2018-10-15T15:01:40.354Z,934.98
2018-10-15T15:02:40.977Z,935
2018-10-15T15:03:41.503Z,934.98
2018-10-15T15:04:42.376Z,934.95
2018-10-15T15:05:43.309Z,934.93
2018-10-15T15:06:44.105Z,934.94
2018-10-15T15:07:44.676Z,934.89
2018-10-15T15:08:44.963Z,934.95
2018-10-15T15:09:46.044Z,934.91
2018-10-15T15:10:46.738Z,934.88
2018-10-15T15:11:47.981Z,934.92
2018-10-15T15:12:49.060Z,934.88
2018-10-15T15:13:49.864Z,934.88
2018-10-15T15:14:50.385Z,934.89
2018-10-15T15:15:50.902Z,934.87
2018-10-15T15:16:51.984Z,934.86
2018-10-15T15:17:52.504Z,934.93
2018-10-15T15:18:52.922Z,934.91
2018-10-15T15:19:53.724Z,934.93
2018-10-15T15:20:55.254Z,934.92
2018-10-15T15:21:55.776Z,934.93
2018-10-15T15:22:56.849Z,934.94
2018-10-15T15:23:58.369Z,934.91
2018-10-15T15:24:58.721Z,934.91
2018-10-15T15:25:59.523Z,934.87
2018-10-15T15:27:00.317Z,934.89
2018-10-15T15:28:00.944Z,934.87
2018-10-15T15:29:01.605Z,934.92
2018-10-15T15:30:02.684Z,934.93
2018-10-15T15:31:03.492Z,934.94
2018-10-15T15:32:04.350Z,934.94
2018-10-15T15:33:05.136Z,934.92
2018-10-15T15:34:05.931Z,934.93
2018-10-15T15:35:07.254Z,934.91
2018-10-15T15:36:08.460Z,934.91
2018-10-15T15:37:09.904Z,934.93
2018-10-15T15:38:12.104Z,934.91
2018-10-15T15:38:24.295Z,934.93
2018-10-15T15:38:37.556Z,934.91
2018-10-15T15:38:49.546Z,934.93
2018-10-15T15:39:01.626Z,934.94
2018-10-15T15:39:13.113Z,934.9
2018-10-15T15:40:13.676Z,934.92
2018-10-15T15:41:14.475Z,934.93
2018-10-15T15:42:15.551Z,934.95
2018-10-15T15:43:16.663Z,934.97
2018-10-15T15:44:17.459Z,934.97
2018-10-15T15:45:18.740Z,935.05
2018-10-15T15:46:19.505Z,934.99
2018-10-15T15:47:20.857Z,935.01
2018-10-15T15:48:22.378Z,935.02
2018-10-15T15:49:23.451Z,935.02
2018-10-15T15:50:24.141Z,935.05
2018-10-15T15:51:24.506Z,935.08
2018-10-15T15:52:25.584Z,935.05
2018-10-15T15:53:26.212Z,935.07
2018-10-15T15:54:27.291Z,935.05
2018-10-15T15:55:28.369Z,935.07
2018-10-15T15:56:29.447Z,935.06
2018-10-15T15:57:30.244Z,935.06
2018-10-15T15:58:31.034Z,935.11
2018-10-15T15:59:31.827Z,935.06
2018-10-15T16:00:32.628Z,935.06
2018-10-15T16:01:33.465Z,935.07
2018-10-15T16:02:34.284Z,935.1
2018-10-15T16:03:35.080Z,935.11
2018-10-15T16:04:36.152Z,935.12
2018-10-15T16:05:37.516Z,935.15
2018-10-15T16:06:38.584Z,935.18
2018-10-15T16:07:39.379Z,935.19
2018-10-15T16:08:40.448Z,935.19
2018-10-15T16:09:41.529Z,935.2
2018-10-15T16:10:42.865Z,935.21
2018-10-15T16:11:43.235Z,935.22
2018-10-15T16:12:44.582Z,935.22
2018-10-15T16:13:45.441Z,935.25
2018-10-15T16:14:46.594Z,935.24
2018-10-15T16:15:47.676Z,935.26
2018-10-15T16:16:49.192Z,935.21
2018-10-15T16:17:49.708Z,935.24
2018-10-15T16:18:50.787Z,935.23
2018-10-15T16:19:51.476Z,935.26
2018-10-15T16:20:52.003Z,935.25
2018-10-15T16:21:53.085Z,935.28
2018-10-15T16:22:53.694Z,935.27
2018-10-15T16:23:54.045Z,935.31
2018-10-15T16:24:54.563Z,935.3
2018-10-15T16:25:55.085Z,935.31
2018-10-15T16:26:55.596Z,935.31
2018-10-15T16:27:57.074Z,935.35
2018-10-15T16:28:58.558Z,935.35
2018-10-15T16:29:58.901Z,935.36
2018-10-15T16:30:59.869Z,935.36
2018-10-15T16:32:00.954Z,935.36
2018-10-15T16:33:02.191Z,935.4
2018-10-15T16:34:03.256Z,935.38
2018-10-15T16:35:03.915Z,935.37
2018-10-15T16:36:04.544Z,935.38
2018-10-15T16:37:04.795Z,935.38
2018-10-15T16:38:05.865Z,935.44
2018-10-15T16:39:06.664Z,935.39
2018-10-15T16:40:07.015Z,935.46
2018-10-15T16:41:08.286Z,935.49
2018-10-15T16:42:09.188Z,935.47
2018-10-15T16:43:09.985Z,935.53
2018-10-15T16:44:11.051Z,935.48
2018-10-15T16:45:11.844Z,935.5
2018-10-15T16:46:12.358Z,935.5
2018-10-15T16:47:13.182Z,935.5
2018-10-15T16:48:14.089Z,935.54
2018-10-15T16:49:14.999Z,935.56
2018-10-15T16:50:16.253Z,935.55
2018-10-15T16:51:16.838Z,935.56
2018-10-15T16:52:18.124Z,935.56
2018-10-15T16:53:19.460Z,935.61
2018-10-15T16:54:20.738Z,935.63
2018-10-15T16:55:21.311Z,935.7
2018-10-15T16:56:22.548Z,935.68
2018-10-15T16:57:23.621Z,935.71
2018-10-15T16:58:23.965Z,935.68
2018-10-15T16:59:25.317Z,935.66
2018-10-15T17:00:26.117Z,935.68
2018-10-15T17:01:26.869Z,935.64
2018-10-15T17:02:28.458Z,935.67
2018-10-15T17:03:28.993Z,935.64
2018-10-15T17:04:30.272Z,935.67
2018-10-15T17:05:31.356Z,935.66
2018-10-15T17:06:32.455Z,935.7
2018-10-15T17:07:33.421Z,935.67
2018-10-15T17:08:34.973Z,935.68
2018-10-15T17:09:35.884Z,935.63
2018-10-15T17:10:36.722Z,935.64
2018-10-15T17:11:37.227Z,935.68
2018-10-15T17:12:38.562Z,935.68
2018-10-15T17:13:40.035Z,935.7
2018-10-15T17:14:40.795Z,935.73
2018-10-15T17:15:41.729Z,935.68
2018-10-15T17:16:42.482Z,935.7
2018-10-15T17:17:43.473Z,935.73
2018-10-15T17:18:44.667Z,935.74
2018-10-15T17:19:45.493Z,935.76
2018-10-15T17:20:46.402Z,935.74
2018-10-15T17:21:47.759Z,935.75
2018-10-15T17:22:48.787Z,935.75
2018-10-15T17:23:49.465Z,935.81
2018-10-15T17:24:50.460Z,935.82
2018-10-15T17:25:51.638Z,935.76
2018-10-15T17:26:52.969Z,935.79
2018-10-15T17:27:54.155Z,935.8
2018-10-15T17:28:55.229Z,935.77
2018-10-15T17:29:56.600Z,935.79
2018-10-15T17:30:57.324Z,935.85
2018-10-15T17:31:58.119Z,935.84
2018-10-15T17:32:59.367Z,935.86
2018-10-15T17:34:01.004Z,935.88
2018-10-15T17:35:02.366Z,935.9
2018-10-15T17:36:03.607Z,935.87
2018-10-15T17:37:05.021Z,935.89
2018-10-15T17:38:05.674Z,935.9
2018-10-15T17:39:05.975Z,935.89
2018-10-15T17:40:06.684Z,935.88
2018-10-15T17:41:07.833Z,935.9
2018-10-15T17:42:08.154Z,935.87
2018-10-15T17:43:08.822Z,935.87
2018-10-15T17:44:09.137Z,935.85
2018-10-15T17:45:09.664Z,935.88
2018-10-15T17:46:10.371Z,935.9
2018-10-15T17:47:11.025Z,935.92
2018-10-15T17:48:11.423Z,935.92
2018-10-15T17:49:12.492Z,935.89
2018-10-15T17:50:13.006Z,935.91
2018-10-15T17:51:13.823Z,935.94
2018-10-15T17:52:15.404Z,935.9
2018-10-15T17:53:16.149Z,935.89
2018-10-15T17:54:16.852Z,935.88
2018-10-15T17:55:17.708Z,935.93
2018-10-15T17:56:18.219Z,935.93
2018-10-15T17:57:19.455Z,935.94
2018-10-15T17:58:20.275Z,935.98
2018-10-15T17:59:21.212Z,936
2018-10-15T18:00:22.338Z,935.97
2018-10-15T18:01:23.329Z,936.01
2018-10-15T18:02:24.155Z,936.02
2018-10-15T18:03:25.393Z,936.03
2018-10-15T18:04:25.861Z,936.05
2018-10-15T18:05:26.725Z,936.07
2018-10-15T18:06:27.699Z,936.05
2018-10-15T18:07:28.996Z,936.08
2018-10-15T18:08:30.104Z,936.08
2018-10-15T18:09:31.178Z,936.06
2018-10-15T18:10:32.273Z,936.07
2018-10-15T18:11:33.175Z,936.1
2018-10-15T18:12:34.792Z,936.11
2018-10-15T18:13:35.149Z,936.11
2018-10-15T18:14:36.517Z,936.09
2018-10-15T18:15:37.620Z,936.12
2018-10-15T18:16:38.855Z,936.12
2018-10-15T18:17:39.226Z,936.15
2018-10-15T18:18:40.265Z,936.14
2018-10-15T18:19:40.601Z,936.16
2018-10-15T18:20:41.769Z,936.18
2018-10-15T18:21:42.564Z,936.15
2018-10-15T18:22:43.165Z,936.16
2018-10-15T18:23:43.826Z,936.18
2018-10-15T18:24:44.392Z,936.14
2018-10-15T18:25:45.683Z,936.15
2018-10-15T18:26:46.429Z,936.17
2018-10-15T18:27:47.518Z,936.17
2018-10-15T18:28:48.141Z,936.14
2018-10-15T18:29:49.119Z,936.16
2018-10-15T18:30:49.689Z,936.21
2018-10-15T18:31:51.060Z,936.16
2018-10-15T18:32:52.407Z,936.16
2018-10-15T18:33:53.195Z,936.19
2018-10-15T18:34:54.431Z,936.22
2018-10-15T18:35:55.305Z,936.25
2018-10-15T18:36:56.593Z,936.22
2018-10-15T18:37:57.115Z,936.23
2018-10-15T18:38:58.060Z,936.23
2018-10-15T18:39:59.044Z,936.16
2018-10-15T18:40:59.908Z,936.21
2018-10-15T18:42:00.462Z,936.19
2018-10-15T18:43:01.265Z,936.21
2018-10-15T18:44:01.779Z,936.23
2018-10-15T18:45:02.578Z,936.22
2018-10-15T18:46:03.759Z,936.23
2018-10-15T18:47:04.309Z,936.23
2018-10-15T18:48:05.168Z,936.21
2018-10-15T18:49:05.813Z,936.25
2018-10-15T18:50:06.884Z,936.27
2018-10-15T18:51:07.352Z,936.25
2018-10-15T18:52:08.207Z,936.29
2018-10-15T18:53:08.472Z,936.29
2018-10-15T18:54:09.173Z,936.26
2018-10-15T18:55:09.816Z,936.27
2018-10-15T18:56:10.605Z,936.28
2018-10-15T18:57:10.958Z,936.3
2018-10-15T18:58:11.858Z,936.25
2018-10-15T18:59:12.209Z,936.26
2018-10-15T19:00:12.748Z,936.28
2018-10-15T19:01:13.842Z,936.3
2018-10-15T19:02:15.081Z,936.27
2018-10-15T19:03:16.324Z,936.27
2018-10-15T19:04:16.947Z,936.31
2018-10-15T19:05:17.458Z,936.29
2018-10-15T19:06:17.969Z,936.28
2018-10-15T19:07:19.617Z,936.33
2018-10-15T19:08:20.780Z,936.29
2018-10-15T19:09:21.851Z,936.28
2018-10-15T19:10:22.923Z,936.31
2018-10-15T19:11:23.266Z,936.3
2018-10-15T19:12:23.777Z,936.28
2018-10-15T19:13:24.580Z,936.28
2018-10-15T19:14:25.372Z,936.29
2018-10-15T19:15:25.999Z,936.26
2018-10-15T19:16:27.074Z,936.29
2018-10-15T19:17:27.865Z,936.24
2018-10-15T19:18:29.097Z,936.29
2018-10-15T19:19:30.809Z,936.3
2018-10-15T19:20:31.575Z,936.27
2018-10-15T19:21:32.364Z,936.24
2018-10-15T19:22:32.712Z,936.26
2018-10-15T19:23:33.514Z,936.29
2018-10-15T19:24:34.588Z,936.29
2018-10-15T19:25:36.098Z,936.3
2018-10-15T19:26:36.997Z,936.28
2018-10-15T19:27:37.785Z,936.26
2018-10-15T19:28:38.575Z,936.24
2018-10-15T19:29:39.368Z,936.3
2018-10-15T19:30:39.717Z,936.29
2018-10-15T19:31:40.786Z,936.26
2018-10-15T19:32:41.851Z,936.29
2018-10-15T19:33:42.780Z,936.34
2018-10-15T19:34:44.216Z,936.31
2018-10-15T19:35:45.010Z,936.31
2018-10-15T19:36:45.523Z,936.32
2018-10-15T19:37:46.308Z,936.29
2018-10-15T19:38:47.650Z,936.32
2018-10-15T19:39:48.448Z,936.31
2018-10-15T19:40:48.960Z,936.31
2018-10-15T19:41:49.748Z,936.36
2018-10-15T19:42:50.676Z,936.39
2018-10-15T19:43:51.916Z,936.42
2018-10-15T19:44:53.029Z,936.39
2018-10-15T19:45:53.649Z,936.41
2018-10-15T19:46:54.447Z,936.43
2018-10-15T19:47:55.511Z,936.41
2018-10-15T19:48:56.025Z,936.46
2018-10-15T19:49:57.100Z,936.47
2018-10-15T19:50:58.165Z,936.44
2018-10-15T19:51:58.950Z,936.46
2018-10-15T19:53:00.179Z,936.47
2018-10-15T19:54:01.696Z,936.47
2018-10-15T19:55:03.150Z,936.48
2018-10-15T19:56:04.216Z,936.46
2018-10-15T19:57:05.728Z,936.48
2018-10-15T19:58:07.133Z,936.51
2018-10-15T19:59:07.576Z,936.49
2018-10-15T20:00:08.093Z,936.49
2018-10-15T20:01:09.160Z,936.49
2018-10-15T20:02:10.394Z,936.52
2018-10-15T20:03:11.230Z,936.51
2018-10-15T20:04:12.623Z,936.58
2018-10-15T20:05:13.414Z,936.57
2018-10-15T20:06:14.204Z,936.56
2018-10-15T20:07:14.718Z,936.61
2018-10-15T20:08:15.237Z,936.63
2018-10-15T20:09:16.081Z,936.6
2018-10-15T20:10:17.527Z,936.66
2018-10-15T20:11:18.278Z,936.61
2018-10-15T20:12:18.788Z,936.65
2018-10-15T20:13:20.134Z,936.68
2018-10-15T20:14:21.096Z,936.67
2018-10-15T20:15:22.195Z,936.66
2018-10-15T20:16:23.260Z,936.68
2018-10-15T20:17:24.156Z,936.66
2018-10-15T20:18:24.855Z,936.67
2018-10-15T20:19:25.924Z,936.66
2018-10-15T20:20:27.264Z,936.71
2018-10-15T20:21:28.332Z,936.72
2018-10-15T20:22:29.123Z,936.78
2018-10-15T20:23:30.184Z,936.77
2018-10-15T20:24:30.722Z,936.73
2018-10-15T20:25:31.510Z,936.72
2018-10-15T20:26:32.298Z,936.8
2018-10-15T20:27:33.083Z,936.8
2018-10-15T20:28:34.760Z,936.81
2018-10-15T20:29:35.553Z,936.82
2018-10-15T20:30:36.178Z,936.88
2018-10-15T20:31:37.077Z,936.86
2018-10-15T20:32:38.143Z,936.83
2018-10-15T20:33:38.483Z,936.86
2018-10-15T20:34:39.447Z,936.84
2018-10-15T20:35:40.730Z,936.83
2018-10-15T20:36:41.123Z,936.83
2018-10-15T20:37:42.190Z,936.82
2018-10-15T20:38:42.533Z,936.84
2018-10-15T20:39:43.599Z,936.87
2018-10-15T20:40:44.391Z,936.88
2018-10-15T20:41:45.184Z,936.86
2018-10-15T20:42:46.869Z,936.87
2018-10-15T20:43:47.546Z,936.88
2018-10-15T20:44:48.785Z,936.88
2018-10-15T20:45:49.578Z,936.89
2018-10-15T20:46:50.093Z,936.88
2018-10-15T20:47:50.882Z,936.9
2018-10-15T20:48:51.395Z,936.87
2018-10-15T20:49:52.738Z,936.88
2018-10-15T20:50:53.802Z,936.9
2018-10-15T20:51:54.588Z,936.91
2018-10-15T20:52:55.378Z,936.9
2018-10-15T20:53:55.890Z,936.89
2018-10-15T20:54:56.856Z,936.89
2018-10-15T20:55:57.368Z,936.9
2018-10-15T20:56:58.437Z,936.91
2018-10-15T20:57:59.063Z,936.9
2018-10-15T20:58:59.407Z,936.9
2018-10-15T21:00:00.199Z,936.87
2018-10-15T21:01:00.712Z,936.91
2018-10-15T21:02:01.502Z,936.86
2018-10-15T21:03:02.127Z,936.88
2018-10-15T21:04:02.967Z,936.91
2018-10-15T21:05:03.520Z,936.92
2018-10-15T21:06:04.423Z,936.96
2018-10-15T21:07:05.487Z,936.98
2018-10-15T21:08:06.721Z,936.97
2018-10-15T21:09:07.787Z,936.95
2018-10-15T21:10:08.302Z,936.96
2018-10-15T21:11:09.092Z,936.94
2018-10-15T21:12:09.885Z,936.96
2018-10-15T21:13:11.113Z,936.98
2018-10-15T21:14:12.236Z,936.99
2018-10-15T21:15:12.862Z,937
2018-10-15T21:16:13.927Z,937.01
2018-10-15T21:17:14.549Z,936.99
2018-10-15T21:18:15.340Z,936.97
2018-10-15T21:19:15.852Z,936.98
2018-10-15T21:20:16.641Z,936.98
2018-10-15T21:21:17.429Z,937
2018-10-15T21:22:17.945Z,936.98
2018-10-15T21:23:19.105Z,936.95
2018-10-15T21:24:19.711Z,937
2018-10-15T21:25:20.401Z,936.95
2018-10-15T21:26:20.754Z,936.98
2018-10-15T21:27:21.100Z,936.97
2018-10-15T21:28:21.609Z,937
2018-10-15T21:29:22.674Z,936.99
2018-10-15T21:30:23.745Z,936.98
2018-10-15T21:31:24.814Z,936.97
2018-10-15T21:32:25.880Z,936.95
2018-10-15T21:33:27.390Z,936.96
2018-10-15T21:34:28.179Z,936.94
2018-10-15T21:35:29.716Z,936.94
2018-10-15T21:36:31.033Z,936.96
2018-10-15T21:37:31.672Z,936.96
2018-10-15T21:38:32.297Z,936.98
2018-10-15T21:39:33.808Z,936.96
2018-10-15T21:40:34.875Z,936.94
2018-10-15T21:41:35.937Z,936.96
2018-10-15T21:42:36.446Z,937.03
2018-10-15T21:43:37.519Z,936.95
2018-10-15T21:44:38.573Z,936.97
2018-10-15T21:45:39.449Z,937.01
2018-10-15T21:46:40.227Z,937.01
2018-10-15T21:47:41.306Z,937.04
2018-10-15T21:48:42.384Z,937.02
2018-10-15T21:49:42.893Z,937
2018-10-15T21:50:43.683Z,937.02
2018-10-15T21:51:44.980Z,937.03
2018-10-15T21:52:46.046Z,937.02
2018-10-15T21:53:47.282Z,937.04
2018-10-15T21:54:48.349Z,937.03
2018-10-15T21:55:49.345Z,937.06
2018-10-15T21:56:50.793Z,937.02
2018-10-15T21:57:51.617Z,937.05
2018-10-15T21:58:52.685Z,937.02
2018-10-15T21:59:53.473Z,937.02
2018-10-15T22:00:54.539Z,937.05